sensor_id;sensor_type;location;lat;lon;timestamp;P1;durP1;ratioP1;P2;durP2;ratioP2
59302;SDS011;45074;52.764;6.896;2022-09-01T00:02:22;4.80;;;2.20;;
59302;SDS011;45074;52.764;6.896;2022-09-01T00:04:51;5.28;;;2.00;;
59302;SDS011;45074;52.764;6.896;2022-09-01T00:07:20;4.07;;;1.98;;
59302;SDS011;45074;52.764;6.896;2022-09-01T00:09:46;5.43;;;2.33;;
59302;SDS011;45074;52.764;6.896;2022-09-01T00:12:11;3.63;;;1.92;;
59302;SDS011;45074;52.764;6.896;2022-09-01T00:14:39;4.93;;;2.20;;
59302;SDS011;45074;52.764;6.896;2022-09-01T00:17:06;4.05;;;2.10;;
59302;SDS011;45074;52.764;6.896;2022-09-01T00:19:34;3.10;;;1.77;;
59302;SDS011;45074;52.764;6.896;2022-09-01T00:22:01;4.50;;;2.00;;
59302;SDS011;45074;52.764;6.896;2022-09-01T00:24:28;2.80;;;1.90;;
59302;SDS011;45074;52.764;6.896;2022-09-01T00:26:54;4.55;;;2.13;;
59302;SDS011;45074;52.764;6.896;2022-09-01T00:29:21;3.72;;;2.20;;
59302;SDS011;45074;52.764;6.896;2022-09-01T00:31:47;4.75;;;2.10;;
59302;SDS011;45074;52.764;6.896;2022-09-01T00:34:13;3.95;;;2.00;;
59302;SDS011;45074;52.764;6.896;2022-09-01T00:36:39;5.20;;;2.28;;
59302;SDS011;45074;52.764;6.896;2022-09-01T00:39:05;4.60;;;1.90;;
59302;SDS011;45074;52.764;6.896;2022-09-01T00:41:32;4.22;;;2.10;;
59302;SDS011;45074;52.764;6.896;2022-09-01T00:44:04;4.30;;;2.15;;
59302;SDS011;45074;52.764;6.896;2022-09-01T00:46:36;4.90;;;2.40;;
59302;SDS011;45074;52.764;6.896;2022-09-01T00:49:08;3.97;;;2.28;;
59302;SDS011;45074;52.764;6.896;2022-09-01T00:51:38;4.30;;;1.92;;
59302;SDS011;45074;52.764;6.896;2022-09-01T00:54:07;5.07;;;2.38;;
59302;SDS011;45074;52.764;6.896;2022-09-01T00:56:36;3.70;;;2.00;;
59302;SDS011;45074;52.764;6.896;2022-09-01T00:59:05;4.47;;;2.28;;
59302;SDS011;45074;52.764;6.896;2022-09-01T01:01:33;4.35;;;2.20;;
59302;SDS011;45074;52.764;6.896;2022-09-01T01:04:02;4.47;;;2.17;;
59302;SDS011;45074;52.764;6.896;2022-09-01T01:06:31;5.13;;;2.45;;
59302;SDS011;45074;52.764;6.896;2022-09-01T01:08:57;5.32;;;2.30;;
59302;SDS011;45074;52.764;6.896;2022-09-01T01:11:31;4.15;;;2.40;;
59302;SDS011;45074;52.764;6.896;2022-09-01T01:14:01;4.43;;;2.50;;
59302;SDS011;45074;52.764;6.896;2022-09-01T01:16:36;3.80;;;2.35;;
59302;SDS011;45074;52.764;6.896;2022-09-01T01:19:10;4.82;;;2.60;;
59302;SDS011;45074;52.764;6.896;2022-09-01T01:25:27;5.22;;;2.55;;
59302;SDS011;45074;52.764;6.896;2022-09-01T01:28:12;7.53;;;2.67;;
59302;SDS011;45074;52.764;6.896;2022-09-01T01:31:09;4.00;;;2.35;;
59302;SDS011;45074;52.764;6.896;2022-09-01T01:33:41;5.43;;;2.60;;
59302;SDS011;45074;52.764;6.896;2022-09-01T01:36:26;3.78;;;2.40;;
59302;SDS011;45074;52.764;6.896;2022-09-01T01:38:58;4.22;;;2.50;;
59302;SDS011;45074;52.764;6.896;2022-09-01T01:41:28;3.67;;;2.50;;
59302;SDS011;45074;52.764;6.896;2022-09-01T01:43:57;4.22;;;2.60;;
59302;SDS011;45074;52.764;6.896;2022-09-01T01:46:32;6.00;;;2.70;;
59302;SDS011;45074;52.764;6.896;2022-09-01T01:48:59;6.10;;;2.70;;
59302;SDS011;45074;52.764;6.896;2022-09-01T01:51:27;4.03;;;2.70;;
59302;SDS011;45074;52.764;6.896;2022-09-01T01:53:56;6.60;;;2.78;;
59302;SDS011;45074;52.764;6.896;2022-09-01T01:56:25;4.23;;;2.80;;
59302;SDS011;45074;52.764;6.896;2022-09-01T01:58:53;4.45;;;2.47;;
59302;SDS011;45074;52.764;6.896;2022-09-01T02:03:55;4.50;;;2.70;;
59302;SDS011;45074;52.764;6.896;2022-09-01T02:06:24;4.82;;;2.50;;
59302;SDS011;45074;52.764;6.896;2022-09-01T02:08:52;5.05;;;2.63;;
59302;SDS011;45074;52.764;6.896;2022-09-01T02:11:27;3.58;;;2.50;;
59302;SDS011;45074;52.764;6.896;2022-09-01T02:13:54;5.70;;;2.72;;
59302;SDS011;45074;52.764;6.896;2022-09-01T02:16:25;5.03;;;2.78;;
59302;SDS011;45074;52.764;6.896;2022-09-01T02:18:52;4.28;;;2.70;;
59302;SDS011;45074;52.764;6.896;2022-09-01T02:21:20;4.38;;;2.80;;
59302;SDS011;45074;52.764;6.896;2022-09-01T02:23:52;7.60;;;3.13;;
59302;SDS011;45074;52.764;6.896;2022-09-01T02:26:36;5.18;;;2.92;;
59302;SDS011;45074;52.764;6.896;2022-09-01T02:29:11;4.43;;;2.78;;
59302;SDS011;45074;52.764;6.896;2022-09-01T02:31:50;4.88;;;3.00;;
59302;SDS011;45074;52.764;6.896;2022-09-01T02:34:21;3.95;;;2.58;;
59302;SDS011;45074;52.764;6.896;2022-09-01T02:36:49;4.25;;;2.70;;
59302;SDS011;45074;52.764;6.896;2022-09-01T02:39:27;3.80;;;2.70;;
59302;SDS011;45074;52.764;6.896;2022-09-01T02:41:54;5.13;;;2.70;;
59302;SDS011;45074;52.764;6.896;2022-09-01T02:44:21;4.78;;;2.65;;
59302;SDS011;45074;52.764;6.896;2022-09-01T02:46:47;5.40;;;2.63;;
59302;SDS011;45074;52.764;6.896;2022-09-01T02:49:20;5.55;;;3.03;;
59302;SDS011;45074;52.764;6.896;2022-09-01T02:51:54;4.85;;;2.80;;
59302;SDS011;45074;52.764;6.896;2022-09-01T02:54:27;6.82;;;3.08;;
59302;SDS011;45074;52.764;6.896;2022-09-01T02:56:55;5.05;;;3.00;;
59302;SDS011;45074;52.764;6.896;2022-09-01T02:59:22;4.53;;;2.80;;
59302;SDS011;45074;52.764;6.896;2022-09-01T03:01:53;5.15;;;3.60;;
59302;SDS011;45074;52.764;6.896;2022-09-01T03:04:21;7.35;;;3.50;;
59302;SDS011;45074;52.764;6.896;2022-09-01T03:06:59;5.63;;;3.50;;
59302;SDS011;45074;52.764;6.896;2022-09-01T03:09:32;6.43;;;3.20;;
59302;SDS011;45074;52.764;6.896;2022-09-01T03:11:59;6.13;;;3.13;;
59302;SDS011;45074;52.764;6.896;2022-09-01T03:14:25;4.72;;;2.97;;
59302;SDS011;45074;52.764;6.896;2022-09-01T03:16:54;5.20;;;2.90;;
59302;SDS011;45074;52.764;6.896;2022-09-01T03:19:21;4.85;;;2.80;;
59302;SDS011;45074;52.764;6.896;2022-09-01T03:21:47;5.45;;;3.08;;
59302;SDS011;45074;52.764;6.896;2022-09-01T03:24:15;4.50;;;2.80;;
59302;SDS011;45074;52.764;6.896;2022-09-01T03:26:44;4.82;;;2.85;;
59302;SDS011;45074;52.764;6.896;2022-09-01T03:29:11;4.53;;;2.50;;
59302;SDS011;45074;52.764;6.896;2022-09-01T03:31:38;4.85;;;2.90;;
59302;SDS011;45074;52.764;6.896;2022-09-01T03:34:05;5.82;;;2.90;;
59302;SDS011;45074;52.764;6.896;2022-09-01T03:36:35;5.60;;;3.00;;
59302;SDS011;45074;52.764;6.896;2022-09-01T03:39:04;6.95;;;3.60;;
59302;SDS011;45074;52.764;6.896;2022-09-01T03:41:33;6.30;;;3.47;;
59302;SDS011;45074;52.764;6.896;2022-09-01T03:44:02;5.47;;;3.28;;
59302;SDS011;45074;52.764;6.896;2022-09-01T03:46:28;5.38;;;3.20;;
59302;SDS011;45074;52.764;6.896;2022-09-01T03:48:56;5.78;;;3.30;;
59302;SDS011;45074;52.764;6.896;2022-09-01T03:51:31;5.05;;;3.20;;
59302;SDS011;45074;52.764;6.896;2022-09-01T03:53:57;4.88;;;2.95;;
59302;SDS011;45074;52.764;6.896;2022-09-01T03:56:24;5.35;;;3.30;;
59302;SDS011;45074;52.764;6.896;2022-09-01T03:58:51;5.93;;;3.00;;
59302;SDS011;45074;52.764;6.896;2022-09-01T04:01:18;6.28;;;3.10;;
59302;SDS011;45074;52.764;6.896;2022-09-01T04:03:44;5.35;;;3.15;;
59302;SDS011;45074;52.764;6.896;2022-09-01T04:06:11;4.57;;;2.90;;
59302;SDS011;45074;52.764;6.896;2022-09-01T04:08:37;5.22;;;3.05;;
59302;SDS011;45074;52.764;6.896;2022-09-01T04:11:10;5.43;;;3.10;;
59302;SDS011;45074;52.764;6.896;2022-09-01T04:13:48;5.70;;;3.00;;
59302;SDS011;45074;52.764;6.896;2022-09-01T04:16:16;6.10;;;3.40;;
59302;SDS011;45074;52.764;6.896;2022-09-01T04:19:05;5.13;;;3.20;;
59302;SDS011;45074;52.764;6.896;2022-09-01T04:21:40;5.45;;;2.90;;
59302;SDS011;45074;52.764;6.896;2022-09-01T04:24:09;6.13;;;2.97;;
59302;SDS011;45074;52.764;6.896;2022-09-01T04:26:37;7.60;;;3.33;;
59302;SDS011;45074;52.764;6.896;2022-09-01T04:29:23;6.50;;;3.28;;
59302;SDS011;45074;52.764;6.896;2022-09-01T04:31:55;6.47;;;3.15;;
59302;SDS011;45074;52.764;6.896;2022-09-01T04:34:29;5.50;;;3.30;;
59302;SDS011;45074;52.764;6.896;2022-09-01T04:37:14;7.43;;;3.30;;
59302;SDS011;45074;52.764;6.896;2022-09-01T04:39:52;4.78;;;3.15;;
59302;SDS011;45074;52.764;6.896;2022-09-01T04:42:20;6.30;;;3.30;;
59302;SDS011;45074;52.764;6.896;2022-09-01T04:44:50;4.88;;;3.00;;
59302;SDS011;45074;52.764;6.896;2022-09-01T04:47:19;5.28;;;3.20;;
59302;SDS011;45074;52.764;6.896;2022-09-01T04:49:57;6.13;;;3.10;;
59302;SDS011;45074;52.764;6.896;2022-09-01T04:52:27;5.93;;;3.08;;
59302;SDS011;45074;52.764;6.896;2022-09-01T04:54:55;4.72;;;2.90;;
59302;SDS011;45074;52.764;6.896;2022-09-01T04:57:23;6.82;;;3.35;;
59302;SDS011;45074;52.764;6.896;2022-09-01T04:59:51;7.65;;;3.00;;
59302;SDS011;45074;52.764;6.896;2022-09-01T05:02:20;5.20;;;3.10;;
59302;SDS011;45074;52.764;6.896;2022-09-01T05:04:51;5.90;;;3.28;;
59302;SDS011;45074;52.764;6.896;2022-09-01T05:07:17;5.38;;;3.20;;
59302;SDS011;45074;52.764;6.896;2022-09-01T05:09:47;5.00;;;3.20;;
59302;SDS011;45074;52.764;6.896;2022-09-01T05:12:13;5.28;;;2.92;;
59302;SDS011;45074;52.764;6.896;2022-09-01T05:14:44;5.47;;;2.97;;
59302;SDS011;45074;52.764;6.896;2022-09-01T05:17:12;4.00;;;2.72;;
59302;SDS011;45074;52.764;6.896;2022-09-01T05:19:43;4.70;;;3.00;;
59302;SDS011;45074;52.764;6.896;2022-09-01T05:22:12;5.95;;;2.95;;
59302;SDS011;45074;52.764;6.896;2022-09-01T05:24:39;5.15;;;3.05;;
59302;SDS011;45074;52.764;6.896;2022-09-01T05:27:06;6.05;;;2.97;;
59302;SDS011;45074;52.764;6.896;2022-09-01T05:29:32;5.82;;;2.80;;
59302;SDS011;45074;52.764;6.896;2022-09-01T05:32:00;6.60;;;3.00;;
59302;SDS011;45074;52.764;6.896;2022-09-01T05:34:34;5.28;;;2.80;;
59302;SDS011;45074;52.764;6.896;2022-09-01T05:37:02;6.82;;;3.30;;
59302;SDS011;45074;52.764;6.896;2022-09-01T05:39:30;7.70;;;3.15;;
59302;SDS011;45074;52.764;6.896;2022-09-01T05:41:59;5.57;;;3.05;;
59302;SDS011;45074;52.764;6.896;2022-09-01T05:44:25;6.68;;;3.15;;
59302;SDS011;45074;52.764;6.896;2022-09-01T05:46:51;7.13;;;3.05;;
59302;SDS011;45074;52.764;6.896;2022-09-01T05:49:19;4.80;;;2.78;;
59302;SDS011;45074;52.764;6.896;2022-09-01T05:51:49;5.80;;;3.00;;
59302;SDS011;45074;52.764;6.896;2022-09-01T05:54:22;4.97;;;2.90;;
59302;SDS011;45074;52.764;6.896;2022-09-01T05:56:51;6.68;;;3.10;;
59302;SDS011;45074;52.764;6.896;2022-09-01T05:59:18;4.97;;;3.00;;
59302;SDS011;45074;52.764;6.896;2022-09-01T06:01:45;5.63;;;3.20;;
59302;SDS011;45074;52.764;6.896;2022-09-01T06:04:14;5.18;;;2.80;;
59302;SDS011;45074;52.764;6.896;2022-09-01T06:06:42;7.63;;;3.10;;
59302;SDS011;45074;52.764;6.896;2022-09-01T06:09:11;6.57;;;3.45;;
59302;SDS011;45074;52.764;6.896;2022-09-01T06:11:50;6.55;;;3.20;;
59302;SDS011;45074;52.764;6.896;2022-09-01T06:14:20;5.72;;;2.90;;
59302;SDS011;45074;52.764;6.896;2022-09-01T06:16:48;6.13;;;3.30;;
59302;SDS011;45074;52.764;6.896;2022-09-01T06:19:18;7.00;;;3.08;;
59302;SDS011;45074;52.764;6.896;2022-09-01T06:21:44;4.97;;;2.95;;
59302;SDS011;45074;52.764;6.896;2022-09-01T06:24:15;5.70;;;3.10;;
59302;SDS011;45074;52.764;6.896;2022-09-01T06:26:44;5.53;;;3.20;;
59302;SDS011;45074;52.764;6.896;2022-09-01T06:29:10;5.45;;;3.08;;
59302;SDS011;45074;52.764;6.896;2022-09-01T06:31:39;6.53;;;3.30;;
59302;SDS011;45074;52.764;6.896;2022-09-01T06:34:08;5.97;;;3.20;;
59302;SDS011;45074;52.764;6.896;2022-09-01T06:36:42;7.35;;;3.10;;
59302;SDS011;45074;52.764;6.896;2022-09-01T06:39:10;6.00;;;3.15;;
59302;SDS011;45074;52.764;6.896;2022-09-01T06:41:47;6.38;;;3.20;;
59302;SDS011;45074;52.764;6.896;2022-09-01T06:44:19;6.30;;;3.17;;
59302;SDS011;45074;52.764;6.896;2022-09-01T06:46:49;5.70;;;3.13;;
59302;SDS011;45074;52.764;6.896;2022-09-01T06:49:19;7.50;;;3.25;;
59302;SDS011;45074;52.764;6.896;2022-09-01T06:51:57;6.70;;;3.20;;
59302;SDS011;45074;52.764;6.896;2022-09-01T06:54:27;6.32;;;2.78;;
59302;SDS011;45074;52.764;6.896;2022-09-01T06:56:54;6.97;;;2.85;;
59302;SDS011;45074;52.764;6.896;2022-09-01T06:59:26;4.55;;;2.90;;
59302;SDS011;45074;52.764;6.896;2022-09-01T07:01:55;5.53;;;2.90;;
59302;SDS011;45074;52.764;6.896;2022-09-01T07:04:26;6.25;;;3.13;;
59302;SDS011;45074;52.764;6.896;2022-09-01T07:06:54;4.63;;;2.75;;
59302;SDS011;45074;52.764;6.896;2022-09-01T07:09:21;5.20;;;2.65;;
59302;SDS011;45074;52.764;6.896;2022-09-01T07:11:50;5.78;;;3.00;;
59302;SDS011;45074;52.764;6.896;2022-09-01T07:14:22;6.70;;;3.03;;
59302;SDS011;45074;52.764;6.896;2022-09-01T07:16:49;6.13;;;2.67;;
59302;SDS011;45074;52.764;6.896;2022-09-01T07:19:15;6.38;;;2.83;;
59302;SDS011;45074;52.764;6.896;2022-09-01T07:21:42;5.07;;;2.53;;
59302;SDS011;45074;52.764;6.896;2022-09-01T07:24:09;4.03;;;2.30;;
59302;SDS011;45074;52.764;6.896;2022-09-01T07:26:36;4.65;;;2.70;;
59302;SDS011;45074;52.764;6.896;2022-09-01T07:29:04;7.40;;;2.70;;
59302;SDS011;45074;52.764;6.896;2022-09-01T07:31:34;4.93;;;2.50;;
59302;SDS011;45074;52.764;6.896;2022-09-01T07:34:07;5.78;;;2.50;;
59302;SDS011;45074;52.764;6.896;2022-09-01T07:36:40;3.70;;;2.17;;
59302;SDS011;45074;52.764;6.896;2022-09-01T07:39:10;4.50;;;2.38;;
59302;SDS011;45074;52.764;6.896;2022-09-01T07:41:38;5.72;;;2.10;;
59302;SDS011;45074;52.764;6.896;2022-09-01T07:44:06;5.40;;;2.35;;
59302;SDS011;45074;52.764;6.896;2022-09-01T07:46:38;3.30;;;2.22;;
59302;SDS011;45074;52.764;6.896;2022-09-01T07:49:04;3.70;;;2.00;;
59302;SDS011;45074;52.764;6.896;2022-09-01T07:51:30;4.22;;;2.03;;
59302;SDS011;45074;52.764;6.896;2022-09-01T07:53:58;4.47;;;2.05;;
59302;SDS011;45074;52.764;6.896;2022-09-01T07:56:27;3.95;;;1.92;;
59302;SDS011;45074;52.764;6.896;2022-09-01T07:58:54;4.50;;;1.63;;
59302;SDS011;45074;52.764;6.896;2022-09-01T08:01:23;3.25;;;1.70;;
59302;SDS011;45074;52.764;6.896;2022-09-01T08:03:53;3.53;;;1.60;;
59302;SDS011;45074;52.764;6.896;2022-09-01T08:06:21;3.90;;;1.60;;
59302;SDS011;45074;52.764;6.896;2022-09-01T08:08:50;3.10;;;1.70;;
59302;SDS011;45074;52.764;6.896;2022-09-01T08:11:18;3.40;;;1.63;;
59302;SDS011;45074;52.764;6.896;2022-09-01T08:13:52;7.68;;;1.60;;
59302;SDS011;45074;52.764;6.896;2022-09-01T08:16:19;4.30;;;1.52;;
59302;SDS011;45074;52.764;6.896;2022-09-01T08:18:46;5.38;;;1.52;;
59302;SDS011;45074;52.764;6.896;2022-09-01T08:21:13;4.60;;;1.40;;
59302;SDS011;45074;52.764;6.896;2022-09-01T08:23:39;3.28;;;1.40;;
59302;SDS011;45074;52.764;6.896;2022-09-01T08:26:07;3.35;;;1.50;;
59302;SDS011;45074;52.764;6.896;2022-09-01T08:28:35;4.70;;;1.50;;
59302;SDS011;45074;52.764;6.896;2022-09-01T08:31:08;4.32;;;1.15;;
59302;SDS011;45074;52.764;6.896;2022-09-01T08:33:36;4.30;;;1.58;;
59302;SDS011;45074;52.764;6.896;2022-09-01T08:36:06;5.03;;;1.40;;
59302;SDS011;45074;52.764;6.896;2022-09-01T08:38:34;3.00;;;1.30;;
59302;SDS011;45074;52.764;6.896;2022-09-01T08:41:01;2.47;;;1.20;;
59302;SDS011;45074;52.764;6.896;2022-09-01T08:43:45;3.25;;;1.35;;
59302;SDS011;45074;52.764;6.896;2022-09-01T08:46:31;2.63;;;1.40;;
59302;SDS011;45074;52.764;6.896;2022-09-01T08:51:50;2.65;;;1.10;;
59302;SDS011;45074;52.764;6.896;2022-09-01T08:59:57;3.17;;;1.30;;
59302;SDS011;45074;52.764;6.896;2022-09-01T09:05:17;3.08;;;1.25;;
59302;SDS011;45074;52.764;6.896;2022-09-01T09:10:59;5.20;;;1.10;;
59302;SDS011;45074;52.764;6.896;2022-09-01T09:19:35;4.03;;;1.20;;
59302;SDS011;45074;52.764;6.896;2022-09-01T09:22:05;3.53;;;1.17;;
59302;SDS011;45074;52.764;6.896;2022-09-01T09:24:54;3.35;;;1.05;;
59302;SDS011;45074;52.764;6.896;2022-09-01T09:27:35;3.42;;;1.10;;
59302;SDS011;45074;52.764;6.896;2022-09-01T09:33:08;1.45;;;1.00;;
59302;SDS011;45074;52.764;6.896;2022-09-01T09:38:18;1.58;;;0.85;;
59302;SDS011;45074;52.764;6.896;2022-09-01T09:41:07;2.88;;;0.90;;
59302;SDS011;45074;52.764;6.896;2022-09-01T09:43:45;1.98;;;0.90;;
59302;SDS011;45074;52.764;6.896;2022-09-01T09:51:57;2.35;;;1.00;;
59302;SDS011;45074;52.764;6.896;2022-09-01T09:54:41;3.60;;;0.90;;
59302;SDS011;45074;52.764;6.896;2022-09-01T09:57:32;5.13;;;1.17;;
59302;SDS011;45074;52.764;6.896;2022-09-01T10:00:06;4.38;;;0.90;;
59302;SDS011;45074;52.764;6.896;2022-09-01T10:02:43;3.85;;;0.90;;
59302;SDS011;45074;52.764;6.896;2022-09-01T10:05:32;2.35;;;0.90;;
59302;SDS011;45074;52.764;6.896;2022-09-01T10:10:52;3.58;;;1.00;;
59302;SDS011;45074;52.764;6.896;2022-09-01T10:13:23;2.05;;;0.95;;
59302;SDS011;45074;52.764;6.896;2022-09-01T10:15:58;2.75;;;0.90;;
59302;SDS011;45074;52.764;6.896;2022-09-01T10:18:33;2.08;;;1.17;;
59302;SDS011;45074;52.764;6.896;2022-09-01T10:21:11;2.60;;;0.90;;
59302;SDS011;45074;52.764;6.896;2022-09-01T10:23:40;2.78;;;0.90;;
59302;SDS011;45074;52.764;6.896;2022-09-01T10:26:23;3.53;;;0.90;;
59302;SDS011;45074;52.764;6.896;2022-09-01T10:31:26;2.10;;;0.90;;
59302;SDS011;45074;52.764;6.896;2022-09-01T10:33:53;3.92;;;0.90;;
59302;SDS011;45074;52.764;6.896;2022-09-01T10:36:19;3.70;;;1.00;;
59302;SDS011;45074;52.764;6.896;2022-09-01T10:38:49;1.55;;;0.70;;
59302;SDS011;45074;52.764;6.896;2022-09-01T10:46:50;2.90;;;1.00;;
59302;SDS011;45074;52.764;6.896;2022-09-01T10:49:21;2.22;;;0.88;;
59302;SDS011;45074;52.764;6.896;2022-09-01T10:52:02;3.58;;;0.70;;
59302;SDS011;45074;52.764;6.896;2022-09-01T11:11:05;1.63;;;0.80;;
59302;SDS011;45074;52.764;6.896;2022-09-01T11:14:03;3.22;;;1.05;;
59302;SDS011;45074;52.764;6.896;2022-09-01T11:17:52;2.97;;;0.95;;
59302;SDS011;45074;52.764;6.896;2022-09-01T11:22:44;2.72;;;0.80;;
59302;SDS011;45074;52.764;6.896;2022-09-01T11:28:06;2.33;;;1.10;;
59302;SDS011;45074;52.764;6.896;2022-09-01T11:33:55;3.35;;;1.08;;
59302;SDS011;45074;52.764;6.896;2022-09-01T11:36:29;2.03;;;0.90;;
59302;SDS011;45074;52.764;6.896;2022-09-01T11:39:04;2.80;;;0.90;;
59302;SDS011;45074;52.764;6.896;2022-09-01T11:47:16;3.03;;;0.98;;
59302;SDS011;45074;52.764;6.896;2022-09-01T11:49:55;1.55;;;0.80;;
59302;SDS011;45074;52.764;6.896;2022-09-01T11:52:33;1.63;;;0.80;;
59302;SDS011;45074;52.764;6.896;2022-09-01T11:55:07;1.40;;;0.90;;
59302;SDS011;45074;52.764;6.896;2022-09-01T11:57:38;2.70;;;1.25;;
59302;SDS011;45074;52.764;6.896;2022-09-01T12:02:33;1.98;;;0.80;;
59302;SDS011;45074;52.764;6.896;2022-09-01T12:07:48;5.80;;;1.20;;
59302;SDS011;45074;52.764;6.896;2022-09-01T12:10:16;4.82;;;0.88;;
59302;SDS011;45074;52.764;6.896;2022-09-01T12:13:00;1.63;;;0.70;;
59302;SDS011;45074;52.764;6.896;2022-09-01T12:15:29;2.70;;;0.88;;
59302;SDS011;45074;52.764;6.896;2022-09-01T12:18:07;2.90;;;0.93;;
59302;SDS011;45074;52.764;6.896;2022-09-01T12:20:45;1.02;;;0.70;;
59302;SDS011;45074;52.764;6.896;2022-09-01T12:23:23;2.88;;;1.00;;
59302;SDS011;45074;52.764;6.896;2022-09-01T12:25:49;3.70;;;1.02;;
59302;SDS011;45074;52.764;6.896;2022-09-01T12:28:19;1.85;;;0.90;;
59302;SDS011;45074;52.764;6.896;2022-09-01T12:30:47;4.07;;;0.90;;
59302;SDS011;45074;52.764;6.896;2022-09-01T12:33:14;2.65;;;0.90;;
59302;SDS011;45074;52.764;6.896;2022-09-01T12:35:42;4.00;;;1.05;;
59302;SDS011;45074;52.764;6.896;2022-09-01T12:40:44;5.53;;;1.00;;
59302;SDS011;45074;52.764;6.896;2022-09-01T12:43:25;3.10;;;0.93;;
59302;SDS011;45074;52.764;6.896;2022-09-01T12:45:53;3.60;;;0.80;;
59302;SDS011;45074;52.764;6.896;2022-09-01T12:48:22;3.42;;;1.00;;
59302;SDS011;45074;52.764;6.896;2022-09-01T12:50:49;3.53;;;0.90;;
59302;SDS011;45074;52.764;6.896;2022-09-01T12:53:18;2.47;;;0.80;;
59302;SDS011;45074;52.764;6.896;2022-09-01T12:55:55;2.70;;;0.82;;
59302;SDS011;45074;52.764;6.896;2022-09-01T12:58:24;3.72;;;0.90;;
59302;SDS011;45074;52.764;6.896;2022-09-01T13:03:20;2.40;;;0.90;;
59302;SDS011;45074;52.764;6.896;2022-09-01T13:05:50;3.13;;;0.70;;
59302;SDS011;45074;52.764;6.896;2022-09-01T13:08:18;2.05;;;0.68;;
59302;SDS011;45074;52.764;6.896;2022-09-01T13:10:46;1.95;;;0.73;;
59302;SDS011;45074;52.764;6.896;2022-09-01T13:13:13;3.35;;;0.93;;
59302;SDS011;45074;52.764;6.896;2022-09-01T13:15:40;3.28;;;0.88;;
59302;SDS011;45074;52.764;6.896;2022-09-01T13:18:07;1.67;;;0.70;;
59302;SDS011;45074;52.764;6.896;2022-09-01T13:20:33;3.10;;;0.88;;
59302;SDS011;45074;52.764;6.896;2022-09-01T13:22:59;2.45;;;0.63;;
59302;SDS011;45074;52.764;6.896;2022-09-01T13:25:26;3.00;;;0.80;;
59302;SDS011;45074;52.764;6.896;2022-09-01T13:27:52;2.10;;;0.80;;
59302;SDS011;45074;52.764;6.896;2022-09-01T13:30:20;1.35;;;0.60;;
59302;SDS011;45074;52.764;6.896;2022-09-01T13:32:46;1.00;;;0.75;;
59302;SDS011;45074;52.764;6.896;2022-09-01T13:35:14;2.45;;;0.80;;
59302;SDS011;45074;52.764;6.896;2022-09-01T13:37:41;2.17;;;0.70;;
59302;SDS011;45074;52.764;6.896;2022-09-01T13:40:07;2.22;;;0.80;;
59302;SDS011;45074;52.764;6.896;2022-09-01T13:42:43;4.45;;;0.90;;
59302;SDS011;45074;52.764;6.896;2022-09-01T13:47:40;5.03;;;0.80;;
59302;SDS011;45074;52.764;6.896;2022-09-01T13:50:07;3.28;;;1.00;;
59302;SDS011;45074;52.764;6.896;2022-09-01T13:52:34;1.85;;;0.70;;
59302;SDS011;45074;52.764;6.896;2022-09-01T13:55:00;2.88;;;0.60;;
59302;SDS011;45074;52.764;6.896;2022-09-01T13:57:26;1.98;;;0.70;;
59302;SDS011;45074;52.764;6.896;2022-09-01T13:59:54;3.10;;;0.70;;
59302;SDS011;45074;52.764;6.896;2022-09-01T14:02:22;3.65;;;0.80;;
59302;SDS011;45074;52.764;6.896;2022-09-01T14:04:50;1.35;;;0.60;;
59302;SDS011;45074;52.764;6.896;2022-09-01T14:07:16;3.72;;;0.80;;
59302;SDS011;45074;52.764;6.896;2022-09-01T14:09:43;2.35;;;0.80;;
59302;SDS011;45074;52.764;6.896;2022-09-01T14:12:09;2.75;;;1.08;;
59302;SDS011;45074;52.764;6.896;2022-09-01T14:14:36;0.75;;;0.68;;
59302;SDS011;45074;52.764;6.896;2022-09-01T14:17:02;1.33;;;0.77;;
59302;SDS011;45074;52.764;6.896;2022-09-01T14:19:28;2.35;;;0.80;;
59302;SDS011;45074;52.764;6.896;2022-09-01T14:21:54;3.10;;;0.82;;
59302;SDS011;45074;52.764;6.896;2022-09-01T14:24:21;1.77;;;0.75;;
59302;SDS011;45074;52.764;6.896;2022-09-01T14:26:47;3.38;;;0.80;;
59302;SDS011;45074;52.764;6.896;2022-09-01T14:29:14;2.38;;;0.80;;
59302;SDS011;45074;52.764;6.896;2022-09-01T14:31:40;1.13;;;0.70;;
59302;SDS011;45074;52.764;6.896;2022-09-01T14:34:09;1.60;;;0.63;;
59302;SDS011;45074;52.764;6.896;2022-09-01T14:36:36;1.50;;;0.80;;
59302;SDS011;45074;52.764;6.896;2022-09-01T14:39:02;1.25;;;0.77;;
59302;SDS011;45074;52.764;6.896;2022-09-01T14:41:29;2.63;;;0.70;;
59302;SDS011;45074;52.764;6.896;2022-09-01T14:43:55;2.45;;;0.75;;
59302;SDS011;45074;52.764;6.896;2022-09-01T14:46:26;3.05;;;0.70;;
59302;SDS011;45074;52.764;6.896;2022-09-01T14:48:54;3.28;;;0.82;;
59302;SDS011;45074;52.764;6.896;2022-09-01T14:51:24;4.13;;;1.10;;
59302;SDS011;45074;52.764;6.896;2022-09-01T14:53:52;3.15;;;0.70;;
59302;SDS011;45074;52.764;6.896;2022-09-01T14:56:19;3.25;;;0.93;;
59302;SDS011;45074;52.764;6.896;2022-09-01T14:58:45;2.95;;;0.70;;
59302;SDS011;45074;52.764;6.896;2022-09-01T15:01:16;1.30;;;0.57;;
59302;SDS011;45074;52.764;6.896;2022-09-01T15:03:49;2.13;;;0.70;;
59302;SDS011;45074;52.764;6.896;2022-09-01T15:06:15;1.95;;;0.52;;
59302;SDS011;45074;52.764;6.896;2022-09-01T15:11:19;2.30;;;0.80;;
59302;SDS011;45074;52.764;6.896;2022-09-01T15:13:45;1.92;;;0.70;;
59302;SDS011;45074;52.764;6.896;2022-09-01T15:16:16;4.65;;;0.90;;
59302;SDS011;45074;52.764;6.896;2022-09-01T15:18:42;4.05;;;0.70;;
59302;SDS011;45074;52.764;6.896;2022-09-01T15:21:22;2.42;;;0.77;;
59302;SDS011;45074;52.764;6.896;2022-09-01T15:23:48;7.38;;;0.93;;
59302;SDS011;45074;52.764;6.896;2022-09-01T15:26:15;2.42;;;0.70;;
59302;SDS011;45074;52.764;6.896;2022-09-01T15:28:45;1.40;;;0.70;;
59302;SDS011;45074;52.764;6.896;2022-09-01T15:31:11;2.58;;;0.65;;
59302;SDS011;45074;52.764;6.896;2022-09-01T15:33:39;1.70;;;0.60;;
59302;SDS011;45074;52.764;6.896;2022-09-01T15:36:05;1.75;;;0.60;;
59302;SDS011;45074;52.764;6.896;2022-09-01T15:38:32;2.35;;;0.80;;
59302;SDS011;45074;52.764;6.896;2022-09-01T15:40:58;3.53;;;0.90;;
59302;SDS011;45074;52.764;6.896;2022-09-01T15:43:28;1.38;;;0.70;;
59302;SDS011;45074;52.764;6.896;2022-09-01T15:45:55;2.25;;;0.77;;
59302;SDS011;45074;52.764;6.896;2022-09-01T15:48:22;2.95;;;0.80;;
59302;SDS011;45074;52.764;6.896;2022-09-01T15:50:48;1.83;;;0.80;;
59302;SDS011;45074;52.764;6.896;2022-09-01T15:53:14;1.65;;;0.60;;
59302;SDS011;45074;52.764;6.896;2022-09-01T15:55:42;2.72;;;0.90;;
59302;SDS011;45074;52.764;6.896;2022-09-01T15:58:09;3.80;;;0.70;;
59302;SDS011;45074;52.764;6.896;2022-09-01T16:00:36;0.93;;;0.80;;
59302;SDS011;45074;52.764;6.896;2022-09-01T16:03:03;2.08;;;0.63;;
59302;SDS011;45074;52.764;6.896;2022-09-01T16:05:30;1.92;;;0.60;;
59302;SDS011;45074;52.764;6.896;2022-09-01T16:07:56;1.27;;;0.60;;
59302;SDS011;45074;52.764;6.896;2022-09-01T16:10:23;2.28;;;0.73;;
59302;SDS011;45074;52.764;6.896;2022-09-01T16:12:49;3.08;;;0.70;;
59302;SDS011;45074;52.764;6.896;2022-09-01T16:15:17;1.92;;;0.70;;
59302;SDS011;45074;52.764;6.896;2022-09-01T16:17:53;2.17;;;0.60;;
59302;SDS011;45074;52.764;6.896;2022-09-01T16:20:23;2.83;;;0.60;;
59302;SDS011;45074;52.764;6.896;2022-09-01T16:25:18;1.80;;;0.68;;
59302;SDS011;45074;52.764;6.896;2022-09-01T16:27:48;1.88;;;0.80;;
59302;SDS011;45074;52.764;6.896;2022-09-01T16:30:19;1.25;;;0.60;;
59302;SDS011;45074;52.764;6.896;2022-09-01T16:32:47;1.90;;;0.57;;
59302;SDS011;45074;52.764;6.896;2022-09-01T16:35:14;2.25;;;0.80;;
59302;SDS011;45074;52.764;6.896;2022-09-01T16:48:53;2.28;;;0.70;;
59302;SDS011;45074;52.764;6.896;2022-09-01T16:52:02;2.30;;;0.70;;
59302;SDS011;45074;52.764;6.896;2022-09-01T16:54:40;6.82;;;0.77;;
59302;SDS011;45074;52.764;6.896;2022-09-01T16:57:30;2.10;;;0.73;;